Time;durP1;ratioP1;P1;durP2;ratioP2;P2;SDS_P1;SDS_P2;PMS_P1;PMS_P2;Temp;Humidity;BMP_temperature;BMP_pressure;BME280_temperature;BME280_humidity;BME280_pressure;Samples;Min_cycle;Max_cycle;Signal;HPM_P1;HPM_P2
2023/01/07 00:02:02;;;;;;;30.10;17.35;;;;;;;6.51;100.00;99398.28;3928558;88;21050;-88
2023/01/07 00:08:03;;;;;;;25.88;16.80;;;;;;;6.56;100.00;99399.42;3942590;89;21114;-89
2023/01/07 00:14:08;;;;;;;27.65;15.83;;;;;;;6.57;100.00;99407.24;3938576;89;22130;-89
2023/01/07 00:20:10;;;;;;;23.57;14.15;;;;;;;6.58;100.00;99396.58;3949056;89;21435;-89
2023/01/07 00:26:19;;;;;;;29.25;17.27;;;;;;;6.60;100.00;99409.84;3944254;87;21752;-88
2023/01/07 00:32:45;;;;;;;29.23;17.07;;;;;;;6.60;100.00;99412.56;3922583;89;21026;-88
2023/01/07 00:38:24;;;;;;;30.40;17.12;;;;;;;6.64;100.00;99413.48;3990234;87;21039;-88
2023/01/07 00:44:27;;;;;;;29.55;17.67;;;;;;;6.58;100.00;99414.84;4007041;87;22078;-87
2023/01/07 00:50:34;;;;;;;32.67;19.12;;;;;;;6.59;100.00;99425.39;4017229;87;21094;-88
2023/01/07 00:56:35;;;;;;;;;;;;;;;6.60;100.00;99431.05;4018154;87;21033;-88
2023/01/07 01:02:37;;;;;;;30.82;17.92;;;;;;;6.59;100.00;99430.83;4032684;86;20494;-90
2023/01/07 01:08:44;;;;;;;28.32;17.17;;;;;;;6.55;100.00;99434.53;4013490;87;21055;-89
2023/01/07 01:14:46;;;;;;;30.52;17.52;;;;;;;6.57;100.00;99445.88;4033659;86;21056;-89
2023/01/07 01:20:51;;;;;;;28.07;16.97;;;;;;;6.57;100.00;99452.68;4037898;86;21131;-89
2023/01/07 01:26:52;;;;;;;27.25;16.93;;;;;;;6.57;100.00;99454.84;4020789;86;21091;-89
2023/01/07 01:32:54;;;;;;;28.00;17.00;;;;;;;6.59;100.00;99457.23;4034098;87;21060;-89
2023/01/07 01:38:56;;;;;;;27.15;16.97;;;;;;;6.58;100.00;99451.57;3993330;87;21715;-88
2023/01/07 01:45:02;;;;;;;27.52;17.65;;;;;;;6.64;100.00;99461.09;3983095;87;21015;-90
2023/01/07 01:51:09;;;;;;;26.77;16.32;;;;;;;6.66;100.00;99453.37;3986526;87;21079;-89
2023/01/07 01:57:10;;;;;;;28.00;16.40;;;;;;;6.69;100.00;99454.86;3986382;87;21111;-90
2023/01/07 02:03:17;;;;;;;24.72;16.23;;;;;;;6.67;100.00;99449.54;3976257;87;21196;-90
2023/01/07 02:09:19;;;;;;;27.85;16.55;;;;;;;6.59;100.00;99454.51;3977960;87;21075;-90
2023/01/07 02:15:33;;;;;;;27.65;16.82;;;;;;;6.53;100.00;99444.98;3979863;87;21084;-88
2023/01/07 02:21:58;;;;;;;28.17;16.77;;;;;;;6.42;100.00;99450.62;3976248;87;21001;-90
2023/01/07 02:28:46;;;;;;;29.72;16.77;;;;;;;6.38;100.00;99456.73;3986899;87;21084;-89
2023/01/07 02:35:11;;;;;;;27.02;16.73;;;;;;;6.42;100.00;99453.34;3985984;87;21032;-89
2023/01/07 02:41:18;;;;;;;30.72;18.02;;;;;;;6.44;100.00;99457.88;3988433;87;21123;-90
2023/01/07 02:47:34;;;;;;;28.70;17.60;;;;;;;6.44;100.00;99460.02;3985902;87;21075;-89
2023/01/07 02:53:38;;;;;;;31.73;18.32;;;;;;;6.47;100.00;99468.86;3980846;87;22335;-89
2023/01/07 03:00:19;;;;;;;25.75;16.55;;;;;;;6.44;100.00;99471.48;3978069;87;21094;-90
2023/01/07 03:06:58;;;;;;;28.32;16.23;;;;;;;6.43;100.00;99476.12;3982660;87;21103;-89
2023/01/07 03:13:11;;;;;;;30.25;19.07;;;;;;;6.39;100.00;99467.83;3987892;87;21052;-88
2023/01/07 03:19:17;;;;;;;32.10;18.07;;;;;;;6.35;100.00;99464.76;3986740;87;21080;-89
2023/01/07 03:25:23;;;;;;;26.53;16.37;;;;;;;6.33;100.00;99461.57;3982917;87;21107;-88
2023/01/07 03:31:28;;;;;;;32.03;19.10;;;;;;;6.28;100.00;99467.22;3982734;87;21063;-89
2023/01/07 03:37:31;;;;;;;36.80;20.80;;;;;;;6.25;100.00;99465.17;3967350;87;21146;-90
2023/01/07 03:43:33;;;;;;;30.02;18.48;;;;;;;6.19;100.00;99454.28;3923815;89;21432;-89
2023/01/07 03:49:36;;;;;;;30.82;19.02;;;;;;;6.06;100.00;99460.23;3944044;89;21073;-89
2023/01/07 03:55:37;;;;;;;31.55;19.90;;;;;;;5.95;100.00;99456.34;3940750;89;21195;-89
2023/01/07 04:01:39;;;;;;;37.17;20.50;;;;;;;5.81;100.00;99459.86;3936662;89;21074;-89
2023/01/07 04:07:41;;;;;;;37.60;21.52;;;;;;;5.68;100.00;99473.17;3935979;89;21061;-89
2023/01/07 04:13:43;;;;;;;29.92;20.02;;;;;;;5.50;100.00;99468.97;3944130;89;21387;-88
2023/01/07 04:19:45;;;;;;;40.03;21.90;;;;;;;5.31;100.00;99466.47;3940012;88;21117;-88
2023/01/07 04:25:48;;;;;;;30.30;19.52;;;;;;;5.24;100.00;99472.97;3940524;89;21087;-89
2023/01/07 04:31:56;;;;;;;37.42;21.05;;;;;;;5.09;100.00;99477.61;3932406;89;21189;-90
2023/01/07 04:37:59;;;;;;;36.13;21.07;;;;;;;4.97;100.00;99480.20;3954899;87;21056;-89
2023/01/07 04:44:00;;;;;;;31.65;19.35;;;;;;;4.90;100.00;99482.64;4017698;87;21061;-89
2023/01/07 04:50:02;;;;;;;37.88;22.35;;;;;;;4.75;100.00;99477.98;4027315;87;21023;-89
2023/01/07 04:56:06;;;;;;;35.52;20.82;;;;;;;4.65;100.00;99474.27;4025555;87;21084;-89
2023/01/07 05:02:08;;;;;;;38.45;21.60;;;;;;;4.57;100.00;99483.22;4052786;86;21106;-90
2023/01/07 05:08:11;;;;;;;38.85;22.10;;;;;;;4.47;100.00;99475.45;3995588;86;21042;-89
2023/01/07 05:14:14;;;;;;;42.98;23.38;;;;;;;4.34;100.00;99470.20;4016790;86;20979;-90
2023/01/07 05:20:18;;;;;;;38.33;23.07;;;;;;;4.24;100.00;99481.39;4031191;86;21083;-88
2023/01/07 05:26:22;;;;;;;34.73;21.37;;;;;;;4.16;100.00;99483.01;3989568;88;21638;-90
2023/01/07 05:32:24;;;;;;;43.45;23.25;;;;;;;3.97;100.00;99487.95;3995493;87;21040;-89
2023/01/07 05:38:26;;;;;;;41.40;23.40;;;;;;;3.87;100.00;99496.97;4017052;86;21071;-89
2023/01/07 05:44:29;;;;;;;34.78;22.10;;;;;;;3.81;100.00;99499.02;4049767;86;21039;-89
2023/01/07 05:50:31;;;;;;;45.25;24.72;;;;;;;3.77;100.00;99504.05;4049630;86;21089;-89
2023/01/07 05:56:34;;;;;;;40.03;24.23;;;;;;;3.71;100.00;99506.67;4043384;86;21031;-89
2023/01/07 06:02:36;;;;;;;45.28;26.40;;;;;;;3.48;100.00;99510.63;4021642;86;21553;-88
2023/01/07 06:08:38;;;;;;;46.98;25.97;;;;;;;3.30;100.00;99513.04;4038874;86;21488;-89
2023/01/07 06:14:41;;;;;;;49.55;27.85;;;;;;;3.21;100.00;99504.91;4037862;86;21039;-90
2023/01/07 06:20:42;;;;;;;42.80;23.32;;;;;;;3.10;100.00;99504.96;4049208;86;21064;-89
2023/01/07 06:26:48;;;;;;;28.57;18.10;;;;;;;2.94;100.00;99507.84;4045297;86;21073;-90
2023/01/07 06:32:53;;;;;;;38.23;21.73;;;;;;;2.63;100.00;99517.88;4047750;85;21703;-89
2023/01/07 06:38:56;;;;;;;39.18;22.42;;;;;;;2.42;100.00;99512.19;4048654;86;21048;-89
2023/01/07 06:44:57;;;;;;;35.48;16.48;;;;;;;2.39;100.00;99517.41;4046063;86;21068;-88
2023/01/07 06:50:58;;;;;;;54.03;17.62;;;;;;;2.21;100.00;99524.59;4045170;85;21566;-88
2023/01/07 06:56:59;;;;;;;35.15;20.55;;;;;;;2.08;100.00;99524.12;4049553;86;21040;-89
2023/01/07 07:03:01;;;;;;;38.53;22.05;;;;;;;2.05;100.00;99519.30;4045069;86;21083;-88
2023/01/07 07:09:02;;;;;;;39.40;22.37;;;;;;;1.88;100.00;99531.31;4045259;86;21539;-90
2023/01/07 07:15:07;;;;;;;39.03;22.22;;;;;;;1.78;100.00;99522.66;4047070;86;21032;-89
2023/01/07 07:21:08;;;;;;;46.13;24.25;;;;;;;1.80;100.00;99529.37;4046205;86;21067;-89
2023/01/07 07:27:10;;;;;;;43.65;23.83;;;;;;;1.77;100.00;99538.62;4044309;86;21091;-88
2023/01/07 07:33:13;;;;;;;35.88;19.30;;;;;;;1.76;100.00;99542.40;4049812;86;21650;-88
2023/01/07 07:39:15;;;;;;;33.85;20.02;;;;;;;1.80;100.00;99540.70;4019102;86;21084;-88
2023/01/07 07:45:18;;;;;;;60.80;29.45;;;;;;;1.97;100.00;99537.61;3995058;87;21068;-89
2023/01/07 07:51:20;;;;;;;74.05;37.13;;;;;;;2.15;100.00;99537.97;3977225;87;21163;-89
2023/01/07 07:57:22;;;;;;;68.37;34.63;;;;;;;2.30;100.00;99542.22;3993232;87;21083;-89
2023/01/07 08:03:23;;;;;;;98.05;42.62;;;;;;;2.55;100.00;99543.72;3993828;87;21078;-89
2023/01/07 08:09:24;;;;;;;79.62;32.48;;;;;;;2.62;100.00;99541.39;3990793;87;21191;-88
2023/01/07 08:15:26;;;;;;;94.65;42.10;;;;;;;2.80;100.00;99528.20;3997336;86;21438;-90
2023/01/07 08:21:27;;;;;;;100.12;45.35;;;;;;;3.02;100.00;99531.42;3996556;87;21112;-89
2023/01/07 08:27:29;;;;;;;104.20;46.73;;;;;;;3.37;100.00;99534.46;3998144;87;20992;-90
2023/01/07 08:33:36;;;;;;;105.05;49.38;;;;;;;3.50;100.00;99530.84;3995197;87;21071;-90
2023/01/07 08:39:37;;;;;;;103.72;50.98;;;;;;;3.85;100.00;99529.79;3995081;87;21059;-91
2023/01/07 08:45:38;;;;;;;130.30;55.28;;;;;;;4.42;100.00;99521.70;3997871;87;21127;-90
2023/01/07 08:51:39;;;;;;;107.45;54.03;;;;;;;5.10;100.00;99518.54;4006671;87;21978;-90
2023/01/07 08:57:41;;;;;;;96.63;49.42;;;;;;;5.74;100.00;99522.64;4007378;87;21081;-90
2023/01/07 09:03:42;;;;;;;73.17;43.92;;;;;;;6.25;100.00;99524.42;4006080;87;21106;-91
2023/01/07 09:09:44;;;;;;;68.10;43.52;;;;;;;6.72;100.00;99522.78;3987419;87;21476;-90
2023/01/07 09:15:46;;;;;;;56.37;35.63;;;;;;;7.40;100.00;99526.83;4008151;87;21517;-91
2023/01/07 09:21:50;;;;;;;51.45;35.43;;;;;;;8.17;100.00;99523.50;4007837;87;21099;-90
2023/01/07 09:27:51;;;;;;;48.05;31.10;;;;;;;8.31;100.00;99519.28;4009596;87;22002;-90
2023/01/07 09:33:53;;;;;;;42.65;28.07;;;;;;;9.01;100.00;99513.55;4007113;87;21110;-91
2023/01/07 09:39:59;;;;;;;43.87;25.20;;;;;;;9.67;100.00;99529.98;4027206;87;21055;-92
2023/01/07 09:46:04;;;;;;;44.98;22.58;;;;;;;10.33;100.00;99523.28;4035072;87;21047;-92
2023/01/07 09:52:16;;;;;;;32.65;22.52;;;;;;;10.78;100.00;99511.63;4033237;87;21139;-92
2023/01/07 09:58:24;;;;;;;38.02;22.85;;;;;;;11.36;100.00;99517.70;4030952;87;21702;-92
2023/01/07 10:04:55;;;;;;;30.05;21.48;;;;;;;11.69;100.00;99511.81;4030926;87;21695;-91
2023/01/07 10:11:21;;;;;;;26.02;18.50;;;;;;;11.84;100.00;99512.22;4035368;87;21589;-91
2023/01/07 10:17:49;;;;;;;26.17;16.77;;;;;;;12.31;100.00;99504.80;4035771;86;20997;-92
2023/01/07 10:24:02;;;;;;;24.37;15.58;;;;;;;12.55;100.00;99498.23;4037320;86;21002;-92
2023/01/07 10:30:12;;;;;;;22.40;14.58;;;;;;;12.79;100.00;99483.76;3954376;88;21171;-90
2023/01/07 10:36:38;;;;;;;17.30;10.98;;;;;;;12.96;100.00;99476.27;3924135;89;21932;-91
2023/01/07 10:43:22;;;;;;;14.35;10.15;;;;;;;13.02;100.00;99472.83;4052010;86;21598;-92
2023/01/07 10:49:51;;;;;;;9.50;6.97;;;;;;;12.89;100.00;99462.48;4047978;85;21144;-91
2023/01/07 10:56:19;;;;;;;10.48;6.47;;;;;;;12.82;100.00;99459.65;4042654;86;21097;-90
2023/01/07 11:02:29;;;;;;;9.13;5.83;;;;;;;12.51;100.00;99463.06;3955897;88;21349;-89
2023/01/07 11:08:41;;;;;;;9.00;6.50;;;;;;;12.30;100.00;99447.75;3918379;88;21082;-92
2023/01/07 11:14:45;;;;;;;11.57;7.70;;;;;;;12.04;100.00;99447.81;3954595;88;21554;-90
2023/01/07 11:20:51;;;;;;;10.68;7.65;;;;;;;11.84;100.00;99454.61;3918010;88;21102;-91
2023/01/07 11:27:17;;;;;;;10.90;7.22;;;;;;;11.76;100.00;99448.81;4054857;86;21038;-90
2023/01/07 11:33:29;;;;;;;12.47;7.12;;;;;;;11.65;100.00;99441.62;4028042;86;21166;-90
2023/01/07 11:39:34;;;;;;;13.70;7.72;;;;;;;11.35;99.71;99434.71;4049856;86;21613;-90
2023/01/07 11:45:49;;;;;;;10.68;7.55;;;;;;;11.02;98.88;99427.73;4049114;86;21028;-91
2023/01/07 11:51:51;;;;;;;16.20;9.25;;;;;;;10.84;99.20;99412.94;4049921;86;21007;-90
2023/01/07 11:57:56;;;;;;;13.53;8.53;;;;;;;10.59;99.34;99402.14;4028734;86;20996;-89
2023/01/07 12:04:21;;;;;;;15.35;8.63;;;;;;;10.40;99.27;99401.63;4049166;86;21926;-90
2023/01/07 12:10:31;;;;;;;9.38;7.35;;;;;;;10.14;98.78;99400.73;3939535;88;21652;-91
2023/01/07 12:16:34;;;;;;;11.93;6.72;;;;;;;10.00;98.56;99396.33;4048258;86;21724;-90
2023/01/07 12:23:10;;;;;;;13.32;8.40;;;;;;;9.77;98.30;99386.71;4049794;86;21538;-90
2023/01/07 12:29:55;;;;;;;13.85;7.28;;;;;;;9.58;98.34;99390.20;4047280;86;21584;-90
2023/01/07 12:36:18;;;;;;;13.40;7.78;;;;;;;9.45;98.72;99378.41;4048769;86;21595;-89
2023/01/07 12:42:25;;;;;;;13.28;7.60;;;;;;;9.16;98.71;99371.52;4003910;86;21587;-91
2023/01/07 12:48:52;;;;;;;10.78;7.78;;;;;;;9.08;99.05;99369.00;3989379;87;21655;-90
2023/01/07 12:54:57;;;;;;;;;;;;;;;9.10;99.36;99366.12;3924122;89;21078;-90
2023/01/07 13:01:06;;;;;;;15.80;9.98;;;;;;;9.14;99.50;99361.55;3902883;89;20653;-90
2023/01/07 13:07:22;;;;;;;25.95;15.08;;;;;;;9.24;99.61;99354.14;3990865;87;21263;-90
2023/01/07 13:13:36;;;;;;;10.45;7.80;;;;;;;9.35;99.33;99359.27;4004021;86;21520;-89
2023/01/07 13:19:38;;;;;;;10.65;6.08;;;;;;;9.47;98.63;99351.52;4009554;86;21567;-90
2023/01/07 13:26:09;;;;;;;10.13;6.05;;;;;;;9.38;98.07;99344.88;3995302;87;21088;-90
2023/01/07 13:32:32;;;;;;;9.35;6.65;;;;;;;9.28;97.67;99337.27;4006644;86;21047;-90
2023/01/07 13:38:42;;;;;;;9.00;5.95;;;;;;;9.17;97.55;99336.25;4033268;86;21056;-90
2023/01/07 13:45:19;;;;;;;10.43;6.00;;;;;;;9.03;97.38;99336.50;4018208;87;21638;-90
2023/01/07 13:51:33;;;;;;;11.60;6.70;;;;;;;8.94;97.24;99339.41;4004555;87;21039;-90
2023/01/07 13:57:40;;;;;;;19.10;11.63;;;;;;;8.77;96.89;99343.89;3925243;89;21567;-89
2023/01/07 14:03:52;;;;;;;11.90;7.47;;;;;;;8.63;96.87;99344.14;4004740;87;21043;-90
2023/01/07 14:09:56;;;;;;;10.68;7.45;;;;;;;8.53;96.85;99341.94;3919473;89;21098;-90
2023/01/07 14:16:22;;;;;;;15.60;9.13;;;;;;;8.43;96.77;99333.71;3924776;89;21066;-90
2023/01/07 14:22:38;;;;;;;16.12;9.43;;;;;;;8.37;96.68;99337.85;4004802;86;21043;-90
2023/01/07 14:29:09;;;;;;;16.60;10.07;;;;;;;8.27;96.49;99334.27;4007880;87;21974;-89
2023/01/07 14:35:16;;;;;;;18.92;10.30;;;;;;;8.14;96.35;99329.22;4004648;87;21084;-90
2023/01/07 14:41:19;;;;;;;15.93;9.40;;;;;;;7.96;96.28;99324.10;3983923;87;21034;-90
2023/01/07 14:47:51;;;;;;;16.35;9.00;;;;;;;7.72;96.01;99330.26;3939024;88;21069;-89
2023/01/07 14:54:22;;;;;;;15.75;9.18;;;;;;;7.51;96.33;99325.56;3935656;88;21062;-90
2023/01/07 15:00:52;;;;;;;17.12;11.97;;;;;;;7.30;96.25;99314.05;3938465;89;21563;-89
2023/01/07 15:06:57;;;;;;;18.00;9.90;;;;;;;6.94;96.25;99310.86;3930398;89;20975;-90
2023/01/07 15:19:20;;;;;;;161.68;89.13;;;;;;;6.26;96.61;99305.02;3928828;88;20986;-91
2023/01/07 15:25:45;;;;;;;62.93;38.40;;;;;;;5.95;96.91;99301.45;3945583;87;21201;-90
2023/01/07 15:32:15;;;;;;;53.78;28.80;;;;;;;5.85;97.91;99292.94;3946636;89;21057;-89
2023/01/07 15:38:48;;;;;;;41.18;24.92;;;;;;;5.80;98.01;99304.79;3944417;87;21066;-89
2023/01/07 15:44:57;;;;;;;57.60;28.42;;;;;;;5.48;97.34;99296.07;4057253;86;21127;-89
2023/01/07 15:50:59;;;;;;;77.72;39.63;;;;;;;5.03;97.12;99302.55;4040332;86;21085;-90
2023/01/07 15:57:11;;;;;;;106.87;48.80;;;;;;;4.74;98.08;99310.17;4036786;86;21584;-90
2023/01/07 16:03:16;;;;;;;67.00;38.00;;;;;;;4.63;98.67;99298.11;4039226;87;21075;-90
2023/01/07 16:09:20;;;;;;;47.85;29.67;;;;;;;4.47;98.91;99294.37;4036949;87;20976;-90
2023/01/07 16:15:26;;;;;;;51.95;31.48;;;;;;;4.34;99.05;99296.19;4036344;86;21092;-90
2023/01/07 16:21:38;;;;;;;35.58;21.07;;;;;;;4.17;99.07;99296.27;4049452;86;21583;-89
2023/01/07 16:27:39;;;;;;;50.38;32.55;;;;;;;4.02;99.10;99294.66;4047568;86;20990;-89
2023/01/07 16:33:42;;;;;;;65.85;38.40;;;;;;;3.77;99.25;99282.00;4051981;86;22063;-90
2023/01/07 16:39:50;;;;;;;60.17;35.52;;;;;;;3.61;99.29;99273.60;4052755;86;21238;-90
2023/01/07 16:46:13;;;;;;;70.37;43.83;;;;;;;3.32;98.85;99262.66;4047984;86;21026;-90
2023/01/07 16:52:18;;;;;;;76.25;42.23;;;;;;;3.19;99.83;99267.13;3988154;88;20998;-89
2023/01/07 16:58:43;;;;;;;91.53;52.95;;;;;;;3.04;99.36;99262.77;3978117;88;21651;-88
2023/01/07 17:04:45;;;;;;;85.72;48.13;;;;;;;2.82;99.96;99253.45;3911354;89;21036;-89
2023/01/07 17:10:58;;;;;;;96.25;55.15;;;;;;;2.63;99.93;99254.34;3925433;88;21623;-89
2023/01/07 17:17:09;;;;;;;78.45;48.40;;;;;;;2.47;100.00;99241.03;3819451;87;9999702;-89
2023/01/07 17:23:30;;;;;;;84.13;46.98;;;;;;;2.28;100.00;99246.73;3971967;87;21054;-88
2023/01/07 17:29:38;;;;;;;101.92;57.88;;;;;;;2.24;100.00;99249.02;3939328;88;21073;-90
2023/01/07 17:35:45;;;;;;;100.12;52.45;;;;;;;2.06;100.00;99241.42;3902444;89;21080;-89
2023/01/07 17:48:13;;;;;;;101.12;55.67;;;;;;;1.75;100.00;99248.77;3934346;88;21035;-89
2023/01/07 17:54:25;;;;;;;127.27;64.40;;;;;;;1.63;100.00;99250.69;3890495;89;21630;-89
2023/01/07 18:00:29;;;;;;;123.92;67.97;;;;;;;1.59;100.00;99244.88;3930083;89;21480;-88
2023/01/07 18:06:33;;;;;;;124.07;67.30;;;;;;;1.53;100.00;99245.55;3996531;87;21025;-89
2023/01/07 18:12:34;;;;;;;120.08;60.40;;;;;;;1.39;100.00;99253.50;3995315;87;21075;-89
2023/01/07 18:18:36;;;;;;;124.78;67.37;;;;;;;1.26;100.00;99255.16;3995515;87;21901;-88
2023/01/07 18:24:37;;;;;;;112.05;61.20;;;;;;;1.17;100.00;99252.16;3991231;86;21051;-89
2023/01/07 18:30:38;;;;;;;115.67;60.92;;;;;;;1.13;100.00;99249.81;3994385;87;22057;-89
2023/01/07 18:36:41;;;;;;;127.30;66.55;;;;;;;1.09;100.00;99257.75;3998486;86;21059;-89
2023/01/07 18:42:42;;;;;;;107.92;60.30;;;;;;;0.93;100.00;99263.25;3996711;87;21085;-89
2023/01/07 18:48:43;;;;;;;107.35;60.03;;;;;;;0.89;100.00;99260.90;3995250;87;21076;-88
2023/01/07 18:54:47;;;;;;;154.07;79.10;;;;;;;0.80;100.00;99264.66;3979685;87;21796;-89
2023/01/07 19:00:48;;;;;;;144.63;75.07;;;;;;;0.76;100.00;99256.91;3995201;87;21150;-90
2023/01/07 19:06:50;;;;;;;141.62;76.42;;;;;;;0.61;100.00;99255.34;3996335;87;21650;-87
2023/01/07 19:12:52;;;;;;;125.05;67.90;;;;;;;0.58;100.00;99252.48;3996284;87;21069;-89
2023/01/07 19:18:54;;;;;;;116.30;63.15;;;;;;;0.47;100.00;99260.55;3999528;87;21599;-89
2023/01/07 19:24:58;;;;;;;117.20;67.72;;;;;;;0.44;100.00;99273.27;3993356;87;21071;-88
2023/01/07 19:31:06;;;;;;;147.22;73.45;;;;;;;0.28;100.00;99268.75;3984827;87;21027;-89
2023/01/07 19:37:08;;;;;;;154.20;81.10;;;;;;;0.25;100.00;99269.90;3995310;87;22134;-88
2023/01/07 19:43:12;;;;;;;166.18;84.37;;;;;;;0.25;100.00;99269.90;3963454;87;21527;-88
2023/01/07 19:49:13;;;;;;;153.97;82.70;;;;;;;0.16;100.00;99260.37;3928086;89;21169;-88
2023/01/07 19:55:15;;;;;;;159.07;87.53;;;;;;;-0.12;100.00;99264.97;3922150;89;21926;-89
2023/01/07 20:01:17;;;;;;;137.82;74.92;;;;;;;-0.28;100.00;99259.63;3930222;89;21150;-87
2023/01/07 20:07:19;;;;;;;191.20;99.35;;;;;;;-0.28;100.00;99259.63;3928201;89;21062;-88
2023/01/07 20:13:21;;;;;;;197.87;104.72;;;;;;;-0.36;100.00;99252.23;3927936;89;22002;-88
2023/01/07 20:19:22;;;;;;;240.40;126.53;;;;;;;-0.37;100.00;99256.56;3928743;89;21022;-87
2023/01/07 20:25:24;;;;;;;186.40;101.92;;;;;;;-0.34;100.00;99240.64;3930394;89;21134;-88
2023/01/07 20:31:28;;;;;;;162.22;93.22;;;;;;;-0.29;100.00;99241.89;3931933;89;21070;-88
2023/01/07 20:37:30;;;;;;;199.32;103.15;;;;;;;-0.28;100.00;99233.26;3941418;89;21053;-88
2023/01/07 20:43:33;;;;;;;179.85;99.00;;;;;;;-0.32;100.00;99235.77;3973294;87;21093;-88
2023/01/07 20:49:35;;;;;;;192.35;98.58;;;;;;;-0.41;100.00;99232.72;3982472;87;20990;-88
2023/01/07 20:55:37;;;;;;;170.65;93.85;;;;;;;-0.43;100.00;99233.02;3988417;87;21013;-88
2023/01/07 21:01:40;;;;;;;202.22;106.70;;;;;;;-0.41;100.00;99228.12;3986284;87;21063;-89
2023/01/07 21:07:42;;;;;;;194.10;107.65;;;;;;;-0.54;100.00;99238.33;3967917;87;22058;-88
2023/01/07 21:13:44;;;;;;;193.05;108.92;;;;;;;-0.65;100.00;99231.53;3982691;87;21032;-90
2023/01/07 21:19:45;;;;;;;198.37;109.93;;;;;;;-0.75;100.00;99218.83;3983937;87;21111;-88
2023/01/07 21:25:47;;;;;;;217.70;118.33;;;;;;;-0.80;100.00;99218.91;3984665;87;21087;-89
2023/01/07 21:31:48;;;;;;;170.43;94.00;;;;;;;-0.79;100.00;99216.46;3980849;87;21114;-89
2023/01/07 21:37:54;;;;;;;175.72;94.75;;;;;;;-0.86;100.00;99222.22;3986868;87;21075;-89
2023/01/07 21:43:56;;;;;;;185.23;97.67;;;;;;;-0.91;100.00;99224.98;3988998;87;21047;-89
2023/01/07 21:49:58;;;;;;;148.97;82.13;;;;;;;-0.93;100.00;99228.53;3990440;87;21013;-88
2023/01/07 21:56:15;;;;;;;157.83;88.20;;;;;;;-1.02;100.00;99220.09;3985194;87;21083;-88
2023/01/07 22:02:17;;;;;;;158.03;86.43;;;;;;;-1.01;100.00;99222.48;3984669;87;21106;-88
2023/01/07 22:08:19;;;;;;;186.87;91.47;;;;;;;-1.07;100.00;99216.14;3982856;87;21031;-88
2023/01/07 22:14:22;;;;;;;194.20;99.23;;;;;;;-1.16;100.00;99205.25;3984132;87;21124;-87
2023/01/07 22:20:24;;;;;;;193.67;100.87;;;;;;;-1.15;100.00;99202.83;3983974;87;21090;-87
2023/01/07 22:26:25;;;;;;;265.87;111.97;;;;;;;-1.08;100.00;99197.09;3986454;87;21102;-88
2023/01/07 22:32:27;;;;;;;263.77;128.50;;;;;;;-1.14;100.00;99185.61;3988415;87;21080;-89
2023/01/07 22:38:29;;;;;;;241.10;120.07;;;;;;;-1.07;100.00;99181.20;3987286;87;21064;-88
2023/01/07 22:44:45;;;;;;;204.90;109.52;;;;;;;-0.88;100.00;99179.27;3981682;87;21079;-88
2023/01/07 22:50:46;;;;;;;231.20;118.87;;;;;;;-0.74;100.00;99181.44;3984222;86;22105;-89
2023/01/07 22:56:48;;;;;;;272.03;135.63;;;;;;;-0.60;100.00;99177.67;3979280;87;21131;-87
2023/01/07 23:02:50;;;;;;;257.87;128.90;;;;;;;-0.51;100.00;99167.01;3987470;87;21056;-88
2023/01/07 23:08:51;;;;;;;221.77;116.40;;;;;;;-0.43;100.00;99171.16;3985999;87;21131;-89
2023/01/07 23:14:52;;;;;;;227.25;116.53;;;;;;;-0.38;100.00;99164.88;3982935;87;21703;-89
2023/01/07 23:20:54;;;;;;;205.87;107.40;;;;;;;-0.29;100.00;99140.21;3984886;87;21503;-89
2023/01/07 23:26:56;;;;;;;200.57;106.47;;;;;;;-0.21;100.00;99128.20;3984404;87;22308;-89
2023/01/07 23:32:57;;;;;;;200.80;101.92;;;;;;;-0.10;100.00;99108.59;3983670;87;21476;-88
2023/01/07 23:38:59;;;;;;;192.28;100.10;;;;;;;-0.10;100.00;99108.59;3982340;87;21140;-88
2023/01/07 23:45:01;;;;;;;174.70;93.37;;;;;;;-0.10;100.00;99077.66;4018427;86;22125;-88
2023/01/07 23:51:12;;;;;;;171.98;90.83;;;;;;;-0.10;100.00;99077.66;4035434;87;21447;-87
2023/01/07 23:57:13;;;;;;;169.77;91.35;;;;;;;0.06;100.00;99082.14;4038444;87;21084;-86
